sensor_id;sensor_type;location;lat;lon;timestamp;P1;durP1;ratioP1;P2;durP2;ratioP2
15500;SDS011;7852;52.228;5.990;2023-02-15T02:03:43;10.2;;;7.5;;
15500;SDS011;7852;52.228;5.990;2023-02-15T03:05:43;11.9;;;6.6;;
15500;SDS011;7852;52.228;5.990;2023-02-15T03:06:45;9.4;;;7.6;;
15500;SDS011;7852;52.228;5.990;2023-02-15T03:07:42;11.4;;;8;;
15500;SDS011;7852;52.228;5.990;2023-02-15T03:08:43;7.1;;;6.2;;
15500;SDS011;7852;52.228;5.990;2023-02-15T03:09:43;11.2;;;8;;
15500;SDS011;7852;52.228;5.990;2023-02-15T03:10:42;10;;;8.4;;
15500;SDS011;7852;52.228;5.990;2023-02-15T03:11:43;11.4;;;7.6;;
15500;SDS011;7852;52.228;5.990;2023-02-15T03:12:42;7.3;;;6.6;;
15500;SDS011;7852;52.228;5.990;2023-02-15T03:13:42;12.6;;;8.5;;
15500;SDS011;7852;52.228;5.990;2023-02-15T03:14:44;13.1;;;9.5;;
15500;SDS011;7852;52.228;5.990;2023-02-15T03:15:42;11.2;;;9.4;;
15500;SDS011;7852;52.228;5.990;2023-02-15T03:16:43;13.7;;;9.4;;
15500;SDS011;7852;52.228;5.990;2023-02-15T03:17:43;12.5;;;8.7;;
15500;SDS011;7852;52.228;5.990;2023-02-15T03:18:43;11;;;8.1;;
15500;SDS011;7852;52.228;5.990;2023-02-15T03:19:42;9;;;6.7;;
15500;SDS011;7852;52.228;5.990;2023-02-15T03:20:42;12.7;;;7.6;;
15500;SDS011;7852;52.228;5.990;2023-02-15T03:21:43;10.2;;;7.6;;
15500;SDS011;7852;52.228;5.990;2023-02-15T03:22:44;9.5;;;7.8;;
15500;SDS011;7852;52.228;5.990;2023-02-15T03:23:42;10;;;7.8;;
15500;SDS011;7852;52.228;5.990;2023-02-15T03:24:43;11.7;;;7.7;;
15500;SDS011;7852;52.228;5.990;2023-02-15T03:25:43;9.1;;;6.1;;
15500;SDS011;7852;52.228;5.990;2023-02-15T03:26:43;11.8;;;7.7;;
15500;SDS011;7852;52.228;5.990;2023-02-15T03:27:43;12.5;;;8.8;;
15500;SDS011;7852;52.228;5.990;2023-02-15T03:28:43;14.8;;;8.6;;
15500;SDS011;7852;52.228;5.990;2023-02-15T03:29:43;15.8;;;8.5;;
15500;SDS011;7852;52.228;5.990;2023-02-15T03:30:43;14.8;;;8.5;;
15500;SDS011;7852;52.228;5.990;2023-02-15T03:31:43;12.8;;;8.1;;
15500;SDS011;7852;52.228;5.990;2023-02-15T03:32:42;7.1;;;6.4;;
15500;SDS011;7852;52.228;5.990;2023-02-15T03:33:44;8.8;;;7.9;;
15500;SDS011;7852;52.228;5.990;2023-02-15T03:34:42;11.8;;;9.1;;
15500;SDS011;7852;52.228;5.990;2023-02-15T03:35:44;12.6;;;8.3;;
15500;SDS011;7852;52.228;5.990;2023-02-15T03:36:44;11.2;;;7.4;;
15500;SDS011;7852;52.228;5.990;2023-02-15T03:37:43;8.7;;;6.3;;
15500;SDS011;7852;52.228;5.990;2023-02-15T03:38:44;13.4;;;9.4;;
15500;SDS011;7852;52.228;5.990;2023-02-15T03:39:44;7.8;;;6.8;;
15500;SDS011;7852;52.228;5.990;2023-02-15T03:40:43;11;;;8.2;;
15500;SDS011;7852;52.228;5.990;2023-02-15T03:41:44;8.7;;;6.7;;
15500;SDS011;7852;52.228;5.990;2023-02-15T03:42:42;9;;;6.9;;
15500;SDS011;7852;52.228;5.990;2023-02-15T03:43:44;13.5;;;8.7;;
15500;SDS011;7852;52.228;5.990;2023-02-15T03:44:46;14.8;;;9.4;;
15500;SDS011;7852;52.228;5.990;2023-02-15T03:45:44;13.7;;;7.8;;
15500;SDS011;7852;52.228;5.990;2023-02-15T03:46:43;16.2;;;9.7;;
15500;SDS011;7852;52.228;5.990;2023-02-15T03:47:43;10.1;;;8;;
15500;SDS011;7852;52.228;5.990;2023-02-15T03:48:43;13.4;;;9.6;;
15500;SDS011;7852;52.228;5.990;2023-02-15T03:49:43;8.8;;;7.8;;
15500;SDS011;7852;52.228;5.990;2023-02-15T03:50:42;12.3;;;8.8;;
15500;SDS011;7852;52.228;5.990;2023-02-15T03:51:43;12.1;;;9;;
15500;SDS011;7852;52.228;5.990;2023-02-15T03:52:42;15.4;;;8.3;;
15500;SDS011;7852;52.228;5.990;2023-02-15T03:53:43;15;;;8.3;;
15500;SDS011;7852;52.228;5.990;2023-02-15T03:54:43;14.8;;;8.2;;
15500;SDS011;7852;52.228;5.990;2023-02-15T03:55:45;9.4;;;8;;
15500;SDS011;7852;52.228;5.990;2023-02-15T03:56:42;11.1;;;7.9;;
15500;SDS011;7852;52.228;5.990;2023-02-15T03:57:42;9.6;;;7.5;;
15500;SDS011;7852;52.228;5.990;2023-02-15T03:58:42;9.3;;;7.3;;
15500;SDS011;7852;52.228;5.990;2023-02-15T03:59:42;14.6;;;7.5;;
15500;SDS011;7852;52.228;5.990;2023-02-15T04:00:43;10.7;;;7.6;;
15500;SDS011;7852;52.228;5.990;2023-02-15T04:01:45;11.4;;;7.4;;
15500;SDS011;7852;52.228;5.990;2023-02-15T04:02:45;17.7;;;9.3;;
15500;SDS011;7852;52.228;5.990;2023-02-15T04:03:43;9.7;;;8.1;;
15500;SDS011;7852;52.228;5.990;2023-02-15T04:04:43;8.6;;;7.4;;
15500;SDS011;7852;52.228;5.990;2023-02-15T04:05:43;13.2;;;8.9;;
15500;SDS011;7852;52.228;5.990;2023-02-15T04:06:42;11.9;;;7.9;;
15500;SDS011;7852;52.228;5.990;2023-02-15T04:07:42;9.3;;;7.8;;
15500;SDS011;7852;52.228;5.990;2023-02-15T04:08:42;10.3;;;7.3;;
15500;SDS011;7852;52.228;5.990;2023-02-15T04:09:42;9.2;;;7.9;;
15500;SDS011;7852;52.228;5.990;2023-02-15T04:10:42;8.8;;;7.1;;
15500;SDS011;7852;52.228;5.990;2023-02-15T04:11:42;13.5;;;7.8;;
15500;SDS011;7852;52.228;5.990;2023-02-15T04:12:42;13.6;;;8.4;;
15500;SDS011;7852;52.228;5.990;2023-02-15T04:13:42;19.9;;;9;;
15500;SDS011;7852;52.228;5.990;2023-02-15T04:14:43;14;;;9.2;;
15500;SDS011;7852;52.228;5.990;2023-02-15T04:15:42;10.3;;;8.4;;
15500;SDS011;7852;52.228;5.990;2023-02-15T04:16:42;12.4;;;8.2;;
15500;SDS011;7852;52.228;5.990;2023-02-15T04:17:42;9.3;;;7.9;;
15500;SDS011;7852;52.228;5.990;2023-02-15T04:18:42;13.5;;;8.3;;
15500;SDS011;7852;52.228;5.990;2023-02-15T04:19:42;12;;;7.5;;
15500;SDS011;7852;52.228;5.990;2023-02-15T04:20:43;12.1;;;8.7;;
15500;SDS011;7852;52.228;5.990;2023-02-15T04:21:42;13.4;;;8.3;;
15500;SDS011;7852;52.228;5.990;2023-02-15T04:22:42;9.2;;;7.3;;
15500;SDS011;7852;52.228;5.990;2023-02-15T04:23:42;20.5;;;9.5;;
15500;SDS011;7852;52.228;5.990;2023-02-15T04:24:42;22.4;;;7.3;;
15500;SDS011;7852;52.228;5.990;2023-02-15T04:25:42;12.9;;;7.8;;
15500;SDS011;7852;52.228;5.990;2023-02-15T04:26:42;9.4;;;6.6;;
15500;SDS011;7852;52.228;5.990;2023-02-15T04:27:43;10;;;7;;
15500;SDS011;7852;52.228;5.990;2023-02-15T04:28:42;6.2;;;5.3;;
15500;SDS011;7852;52.228;5.990;2023-02-15T04:29:42;9.6;;;6.6;;
15500;SDS011;7852;52.228;5.990;2023-02-15T04:30:43;10.8;;;5.5;;
15500;SDS011;7852;52.228;5.990;2023-02-15T04:31:42;8.9;;;6.3;;
15500;SDS011;7852;52.228;5.990;2023-02-15T04:32:42;12.6;;;7.4;;
15500;SDS011;7852;52.228;5.990;2023-02-15T04:33:42;8.9;;;6.3;;
15500;SDS011;7852;52.228;5.990;2023-02-15T04:34:42;7.1;;;6.1;;
15500;SDS011;7852;52.228;5.990;2023-02-15T04:35:42;6.7;;;5.8;;
15500;SDS011;7852;52.228;5.990;2023-02-15T04:36:42;10.4;;;6.9;;
15500;SDS011;7852;52.228;5.990;2023-02-15T04:37:43;10.7;;;6.9;;
15500;SDS011;7852;52.228;5.990;2023-02-15T04:38:42;8.2;;;5.4;;
15500;SDS011;7852;52.228;5.990;2023-02-15T04:39:42;9.6;;;6.3;;
15500;SDS011;7852;52.228;5.990;2023-02-15T04:40:42;9.3;;;6.9;;
15500;SDS011;7852;52.228;5.990;2023-02-15T04:41:43;6.9;;;5.7;;
15500;SDS011;7852;52.228;5.990;2023-02-15T04:42:42;7.6;;;6.4;;
15500;SDS011;7852;52.228;5.990;2023-02-15T04:43:42;9.7;;;5.3;;
15500;SDS011;7852;52.228;5.990;2023-02-15T04:44:42;8.7;;;6;;
15500;SDS011;7852;52.228;5.990;2023-02-15T04:45:46;6.6;;;5.3;;
15500;SDS011;7852;52.228;5.990;2023-02-15T04:46:42;6.7;;;5.6;;
15500;SDS011;7852;52.228;5.990;2023-02-15T04:47:42;9.5;;;6.8;;
15500;SDS011;7852;52.228;5.990;2023-02-15T04:48:42;12;;;6.9;;
15500;SDS011;7852;52.228;5.990;2023-02-15T04:49:42;8.8;;;7.1;;
15500;SDS011;7852;52.228;5.990;2023-02-15T04:50:43;11.9;;;6.6;;
15500;SDS011;7852;52.228;5.990;2023-02-15T04:51:42;10;;;7.6;;
15500;SDS011;7852;52.228;5.990;2023-02-15T04:52:42;11.2;;;7.8;;
15500;SDS011;7852;52.228;5.990;2023-02-15T04:53:42;8.3;;;6.2;;
15500;SDS011;7852;52.228;5.990;2023-02-15T04:54:43;9.2;;;7.5;;
15500;SDS011;7852;52.228;5.990;2023-02-15T04:55:42;10.7;;;7.2;;
15500;SDS011;7852;52.228;5.990;2023-02-15T04:56:42;9.5;;;6.9;;
15500;SDS011;7852;52.228;5.990;2023-02-15T04:57:42;9.2;;;6.7;;
15500;SDS011;7852;52.228;5.990;2023-02-15T04:58:42;12.1;;;7.9;;
15500;SDS011;7852;52.228;5.990;2023-02-15T04:59:42;10.8;;;7.6;;
15500;SDS011;7852;52.228;5.990;2023-02-15T05:00:42;10.3;;;7;;
15500;SDS011;7852;52.228;5.990;2023-02-15T05:01:42;12.3;;;8.6;;
15500;SDS011;7852;52.228;5.990;2023-02-15T05:02:42;9.1;;;7.5;;
15500;SDS011;7852;52.228;5.990;2023-02-15T05:03:42;11.2;;;6.4;;
15500;SDS011;7852;52.228;5.990;2023-02-15T05:04:42;9.6;;;7.4;;
15500;SDS011;7852;52.228;5.990;2023-02-15T05:05:42;10.4;;;7.6;;
15500;SDS011;7852;52.228;5.990;2023-02-15T05:06:42;8.2;;;6.3;;
15500;SDS011;7852;52.228;5.990;2023-02-15T05:07:42;10.8;;;7.1;;
15500;SDS011;7852;52.228;5.990;2023-02-15T05:08:42;7.1;;;6;;
15500;SDS011;7852;52.228;5.990;2023-02-15T05:09:42;7;;;6.4;;
15500;SDS011;7852;52.228;5.990;2023-02-15T05:10:42;9.6;;;7;;
15500;SDS011;7852;52.228;5.990;2023-02-15T05:11:42;11.3;;;7.1;;
15500;SDS011;7852;52.228;5.990;2023-02-15T05:12:42;8.6;;;7.2;;
15500;SDS011;7852;52.228;5.990;2023-02-15T05:13:42;13.1;;;8.5;;
15500;SDS011;7852;52.228;5.990;2023-02-15T05:14:42;15.1;;;9.3;;
15500;SDS011;7852;52.228;5.990;2023-02-15T05:15:46;15.6;;;10;;
15500;SDS011;7852;52.228;5.990;2023-02-15T05:16:42;13.1;;;8.5;;
15500;SDS011;7852;52.228;5.990;2023-02-15T05:17:42;12.9;;;7.7;;
15500;SDS011;7852;52.228;5.990;2023-02-15T05:18:42;14.2;;;8.7;;
15500;SDS011;7852;52.228;5.990;2023-02-15T05:19:42;8.6;;;7.2;;
15500;SDS011;7852;52.228;5.990;2023-02-15T05:20:43;12.1;;;8.6;;
15500;SDS011;7852;52.228;5.990;2023-02-15T05:21:42;7.3;;;6.6;;
15500;SDS011;7852;52.228;5.990;2023-02-15T05:22:42;10.2;;;7.3;;
15500;SDS011;7852;52.228;5.990;2023-02-15T05:23:42;10.2;;;7.6;;
15500;SDS011;7852;52.228;5.990;2023-02-15T05:24:42;11.9;;;7.8;;
15500;SDS011;7852;52.228;5.990;2023-02-15T05:25:46;9.7;;;7.9;;
15500;SDS011;7852;52.228;5.990;2023-02-15T05:26:42;11.2;;;8;;
15500;SDS011;7852;52.228;5.990;2023-02-15T05:27:42;10.1;;;8.1;;
15500;SDS011;7852;52.228;5.990;2023-02-15T05:28:42;14.1;;;7.8;;
15500;SDS011;7852;52.228;5.990;2023-02-15T05:29:42;10.6;;;7.7;;
15500;SDS011;7852;52.228;5.990;2023-02-15T05:30:42;13;;;8.4;;
15500;SDS011;7852;52.228;5.990;2023-02-15T05:31:42;13;;;8;;
15500;SDS011;7852;52.228;5.990;2023-02-15T05:32:42;12.4;;;8.5;;
15500;SDS011;7852;52.228;5.990;2023-02-15T05:33:43;15.7;;;10.4;;
15500;SDS011;7852;52.228;5.990;2023-02-15T05:34:42;11.7;;;8.2;;
15500;SDS011;7852;52.228;5.990;2023-02-15T05:35:43;8;;;7.2;;
15500;SDS011;7852;52.228;5.990;2023-02-15T05:36:42;10.5;;;6.9;;
15500;SDS011;7852;52.228;5.990;2023-02-15T05:37:42;18;;;9.3;;
15500;SDS011;7852;52.228;5.990;2023-02-15T05:38:42;11.6;;;7.6;;
15500;SDS011;7852;52.228;5.990;2023-02-15T05:39:42;11.5;;;8.2;;
15500;SDS011;7852;52.228;5.990;2023-02-15T05:40:42;14.6;;;9.2;;
15500;SDS011;7852;52.228;5.990;2023-02-15T05:41:42;11.1;;;8.7;;
15500;SDS011;7852;52.228;5.990;2023-02-15T05:42:42;22.1;;;8.8;;
15500;SDS011;7852;52.228;5.990;2023-02-15T05:43:42;12.1;;;8.1;;
15500;SDS011;7852;52.228;5.990;2023-02-15T05:44:42;9.1;;;7.4;;
15500;SDS011;7852;52.228;5.990;2023-02-15T05:45:44;10.6;;;6.5;;
15500;SDS011;7852;52.228;5.990;2023-02-15T05:46:42;14.4;;;8.3;;
15500;SDS011;7852;52.228;5.990;2023-02-15T05:47:42;14.6;;;7.8;;
15500;SDS011;7852;52.228;5.990;2023-02-15T05:48:42;10.8;;;7.8;;
15500;SDS011;7852;52.228;5.990;2023-02-15T05:49:42;15.5;;;7.7;;
15500;SDS011;7852;52.228;5.990;2023-02-15T05:50:42;9.9;;;7.2;;
15500;SDS011;7852;52.228;5.990;2023-02-15T05:51:42;10.9;;;6.4;;
15500;SDS011;7852;52.228;5.990;2023-02-15T05:52:42;10.8;;;8.4;;
15500;SDS011;7852;52.228;5.990;2023-02-15T05:53:42;10.2;;;6.7;;
15500;SDS011;7852;52.228;5.990;2023-02-15T05:54:42;11.9;;;8.2;;
15500;SDS011;7852;52.228;5.990;2023-02-15T05:55:42;12.1;;;8.6;;
15500;SDS011;7852;52.228;5.990;2023-02-15T05:56:42;10.6;;;8.1;;
15500;SDS011;7852;52.228;5.990;2023-02-15T05:57:45;12.7;;;9.3;;
15500;SDS011;7852;52.228;5.990;2023-02-15T05:58:45;14.3;;;8.7;;
15500;SDS011;7852;52.228;5.990;2023-02-15T05:59:45;11.6;;;8.5;;
15500;SDS011;7852;52.228;5.990;2023-02-15T06:00:45;9.3;;;6.3;;
15500;SDS011;7852;52.228;5.990;2023-02-15T06:01:45;14;;;9.8;;
15500;SDS011;7852;52.228;5.990;2023-02-15T06:02:45;13.1;;;7.8;;
15500;SDS011;7852;52.228;5.990;2023-02-15T06:03:45;10.4;;;7.3;;
15500;SDS011;7852;52.228;5.990;2023-02-15T06:04:45;11.8;;;6.8;;
15500;SDS011;7852;52.228;5.990;2023-02-15T06:05:45;10.2;;;7;;
15500;SDS011;7852;52.228;5.990;2023-02-15T06:06:45;13.6;;;8;;
15500;SDS011;7852;52.228;5.990;2023-02-15T06:07:45;23.3;;;10.2;;
15500;SDS011;7852;52.228;5.990;2023-02-15T06:08:45;15.1;;;8.1;;
15500;SDS011;7852;52.228;5.990;2023-02-15T06:09:45;14.1;;;9.4;;
15500;SDS011;7852;52.228;5.990;2023-02-15T06:10:46;9.8;;;7.4;;
15500;SDS011;7852;52.228;5.990;2023-02-15T06:11:45;12.8;;;8;;
15500;SDS011;7852;52.228;5.990;2023-02-15T06:12:45;10.3;;;7.9;;
15500;SDS011;7852;52.228;5.990;2023-02-15T06:13:45;9.4;;;7;;
15500;SDS011;7852;52.228;5.990;2023-02-15T06:14:45;9.3;;;7.9;;
15500;SDS011;7852;52.228;5.990;2023-02-15T06:15:45;10.8;;;8.5;;
15500;SDS011;7852;52.228;5.990;2023-02-15T06:16:45;12;;;7.8;;
15500;SDS011;7852;52.228;5.990;2023-02-15T06:17:45;18.4;;;8.6;;
15500;SDS011;7852;52.228;5.990;2023-02-15T06:18:45;12.7;;;7.8;;
15500;SDS011;7852;52.228;5.990;2023-02-15T06:19:45;6.7;;;6.1;;
15500;SDS011;7852;52.228;5.990;2023-02-15T06:20:45;10.1;;;6.3;;
15500;SDS011;7852;52.228;5.990;2023-02-15T06:21:45;12.5;;;7.8;;
15500;SDS011;7852;52.228;5.990;2023-02-15T06:22:45;10.6;;;7.3;;
15500;SDS011;7852;52.228;5.990;2023-02-15T06:23:45;11;;;7.8;;
15500;SDS011;7852;52.228;5.990;2023-02-15T06:24:45;11.7;;;8.9;;
15500;SDS011;7852;52.228;5.990;2023-02-15T06:25:45;9.6;;;8;;
15500;SDS011;7852;52.228;5.990;2023-02-15T06:26:45;11.1;;;7;;
15500;SDS011;7852;52.228;5.990;2023-02-15T06:27:45;17.5;;;9.5;;
15500;SDS011;7852;52.228;5.990;2023-02-15T06:28:46;14.1;;;7.6;;
15500;SDS011;7852;52.228;5.990;2023-02-15T06:29:46;10;;;6.8;;
15500;SDS011;7852;52.228;5.990;2023-02-15T06:30:46;12.6;;;7.1;;
15500;SDS011;7852;52.228;5.990;2023-02-15T06:31:46;16.4;;;8.6;;
15500;SDS011;7852;52.228;5.990;2023-02-15T06:32:46;12.7;;;8.6;;
15500;SDS011;7852;52.228;5.990;2023-02-15T06:33:46;11.3;;;8;;
15500;SDS011;7852;52.228;5.990;2023-02-15T06:34:46;15.6;;;8.9;;
15500;SDS011;7852;52.228;5.990;2023-02-15T06:35:46;11.8;;;8.5;;
15500;SDS011;7852;52.228;5.990;2023-02-15T06:36:46;13.8;;;7.4;;
15500;SDS011;7852;52.228;5.990;2023-02-15T06:37:46;12.3;;;7.3;;
15500;SDS011;7852;52.228;5.990;2023-02-15T06:38:46;11.6;;;8.4;;
15500;SDS011;7852;52.228;5.990;2023-02-15T06:39:46;15.3;;;9.3;;
15500;SDS011;7852;52.228;5.990;2023-02-15T06:40:46;11.5;;;8.3;;
15500;SDS011;7852;52.228;5.990;2023-02-15T06:41:46;12;;;8.1;;
15500;SDS011;7852;52.228;5.990;2023-02-15T06:42:46;10.7;;;7.5;;
15500;SDS011;7852;52.228;5.990;2023-02-15T06:43:46;11.7;;;7.7;;
15500;SDS011;7852;52.228;5.990;2023-02-15T06:44:46;12.3;;;9.1;;
15500;SDS011;7852;52.228;5.990;2023-02-15T06:45:46;13.6;;;8.7;;
15500;SDS011;7852;52.228;5.990;2023-02-15T06:46:46;14.1;;;8.6;;
15500;SDS011;7852;52.228;5.990;2023-02-15T06:47:46;9.4;;;5.9;;
15500;SDS011;7852;52.228;5.990;2023-02-15T06:48:46;12;;;8.2;;
15500;SDS011;7852;52.228;5.990;2023-02-15T06:49:46;9.1;;;7.5;;
15500;SDS011;7852;52.228;5.990;2023-02-15T06:50:46;13.8;;;9.2;;
15500;SDS011;7852;52.228;5.990;2023-02-15T06:51:46;12.6;;;8.3;;
15500;SDS011;7852;52.228;5.990;2023-02-15T06:52:46;9.7;;;7.6;;
15500;SDS011;7852;52.228;5.990;2023-02-15T06:53:46;11.7;;;7.6;;
15500;SDS011;7852;52.228;5.990;2023-02-15T06:54:46;11.6;;;8.6;;
15500;SDS011;7852;52.228;5.990;2023-02-15T06:55:46;13.1;;;8.3;;
15500;SDS011;7852;52.228;5.990;2023-02-15T06:56:46;13.8;;;9.1;;
15500;SDS011;7852;52.228;5.990;2023-02-15T06:57:46;9.8;;;7.3;;
15500;SDS011;7852;52.228;5.990;2023-02-15T06:58:46;10.7;;;7.4;;
15500;SDS011;7852;52.228;5.990;2023-02-15T06:59:46;13.8;;;8;;
15500;SDS011;7852;52.228;5.990;2023-02-15T07:00:46;10;;;7.1;;
15500;SDS011;7852;52.228;5.990;2023-02-15T07:01:46;17.2;;;7.7;;
15500;SDS011;7852;52.228;5.990;2023-02-15T07:02:46;11.1;;;7.6;;
15500;SDS011;7852;52.228;5.990;2023-02-15T07:03:46;11.8;;;9.5;;
15500;SDS011;7852;52.228;5.990;2023-02-15T07:04:46;8.6;;;7.7;;
15500;SDS011;7852;52.228;5.990;2023-02-15T07:05:46;16.8;;;10.6;;
15500;SDS011;7852;52.228;5.990;2023-02-15T07:06:46;16.7;;;9.4;;
15500;SDS011;7852;52.228;5.990;2023-02-15T07:07:46;17.9;;;8.9;;
15500;SDS011;7852;52.228;5.990;2023-02-15T07:08:46;13.8;;;9.5;;
15500;SDS011;7852;52.228;5.990;2023-02-15T07:09:46;14.2;;;9.1;;
15500;SDS011;7852;52.228;5.990;2023-02-15T07:10:46;15.2;;;8.8;;
15500;SDS011;7852;52.228;5.990;2023-02-15T07:11:46;10;;;7.6;;
15500;SDS011;7852;52.228;5.990;2023-02-15T07:12:46;13.4;;;8;;
15500;SDS011;7852;52.228;5.990;2023-02-15T07:13:46;15.4;;;9.1;;
15500;SDS011;7852;52.228;5.990;2023-02-15T07:14:46;11.5;;;8.8;;
15500;SDS011;7852;52.228;5.990;2023-02-15T07:15:46;10.3;;;8.8;;
15500;SDS011;7852;52.228;5.990;2023-02-15T07:16:46;15.6;;;9.2;;
15500;SDS011;7852;52.228;5.990;2023-02-15T07:17:46;11.9;;;8.5;;
15500;SDS011;7852;52.228;5.990;2023-02-15T07:18:46;13.2;;;8.1;;
15500;SDS011;7852;52.228;5.990;2023-02-15T07:19:46;12.3;;;8.5;;
15500;SDS011;7852;52.228;5.990;2023-02-15T07:20:46;12.5;;;8.1;;
15500;SDS011;7852;52.228;5.990;2023-02-15T07:21:46;14.9;;;8.5;;
15500;SDS011;7852;52.228;5.990;2023-02-15T07:22:46;15.6;;;10.6;;
15500;SDS011;7852;52.228;5.990;2023-02-15T07:23:46;18.4;;;8.6;;
15500;SDS011;7852;52.228;5.990;2023-02-15T07:24:46;13.4;;;7.6;;
15500;SDS011;7852;52.228;5.990;2023-02-15T07:25:47;16.2;;;8.2;;
15500;SDS011;7852;52.228;5.990;2023-02-15T07:26:46;11.6;;;8;;
15500;SDS011;7852;52.228;5.990;2023-02-15T07:27:46;12.5;;;9;;
15500;SDS011;7852;52.228;5.990;2023-02-15T07:28:46;12;;;9;;
15500;SDS011;7852;52.228;5.990;2023-02-15T07:29:46;15.9;;;9.3;;
15500;SDS011;7852;52.228;5.990;2023-02-15T07:30:46;17.9;;;9.7;;
15500;SDS011;7852;52.228;5.990;2023-02-15T07:31:46;12.3;;;8.2;;
15500;SDS011;7852;52.228;5.990;2023-02-15T07:32:46;10.2;;;7.3;;
15500;SDS011;7852;52.228;5.990;2023-02-15T07:33:46;11.1;;;8.3;;
15500;SDS011;7852;52.228;5.990;2023-02-15T07:34:47;17.6;;;9.2;;
15500;SDS011;7852;52.228;5.990;2023-02-15T07:35:47;11.8;;;8.8;;
15500;SDS011;7852;52.228;5.990;2023-02-15T07:36:47;13.7;;;10.9;;
15500;SDS011;7852;52.228;5.990;2023-02-15T07:37:47;11.7;;;10.3;;
15500;SDS011;7852;52.228;5.990;2023-02-15T07:38:47;14.4;;;7.7;;
15500;SDS011;7852;52.228;5.990;2023-02-15T07:39:47;14.4;;;9.5;;
15500;SDS011;7852;52.228;5.990;2023-02-15T07:40:47;13.6;;;9.3;;
15500;SDS011;7852;52.228;5.990;2023-02-15T07:41:47;20.7;;;10.6;;
15500;SDS011;7852;52.228;5.990;2023-02-15T07:42:47;16.9;;;9.4;;
15500;SDS011;7852;52.228;5.990;2023-02-15T07:43:47;15.2;;;8.9;;
15500;SDS011;7852;52.228;5.990;2023-02-15T07:44:47;12.4;;;9.5;;
15500;SDS011;7852;52.228;5.990;2023-02-15T07:45:47;11.8;;;8.5;;
15500;SDS011;7852;52.228;5.990;2023-02-15T07:46:47;8;;;6.9;;
15500;SDS011;7852;52.228;5.990;2023-02-15T07:47:47;9.8;;;7.7;;
15500;SDS011;7852;52.228;5.990;2023-02-15T07:48:47;13.8;;;8.3;;
15500;SDS011;7852;52.228;5.990;2023-02-15T07:49:47;12.5;;;8.8;;
15500;SDS011;7852;52.228;5.990;2023-02-15T07:50:47;10.9;;;9.2;;
15500;SDS011;7852;52.228;5.990;2023-02-15T07:51:47;11.8;;;8.3;;
15500;SDS011;7852;52.228;5.990;2023-02-15T07:52:47;13.4;;;10;;
15500;SDS011;7852;52.228;5.990;2023-02-15T07:53:47;12.7;;;9.8;;
15500;SDS011;7852;52.228;5.990;2023-02-15T07:54:47;14.5;;;9.5;;
15500;SDS011;7852;52.228;5.990;2023-02-15T07:55:47;13.4;;;10;;
15500;SDS011;7852;52.228;5.990;2023-02-15T07:56:47;15;;;10;;
15500;SDS011;7852;52.228;5.990;2023-02-15T07:57:48;10.1;;;7.5;;
15500;SDS011;7852;52.228;5.990;2023-02-15T07:58:47;11.9;;;8.7;;
15500;SDS011;7852;52.228;5.990;2023-02-15T07:59:47;15.8;;;9.9;;
15500;SDS011;7852;52.228;5.990;2023-02-15T08:00:47;12.6;;;10;;
15500;SDS011;7852;52.228;5.990;2023-02-15T08:01:47;14.5;;;10;;
15500;SDS011;7852;52.228;5.990;2023-02-15T08:02:47;13.5;;;10.4;;
15500;SDS011;7852;52.228;5.990;2023-02-15T08:03:47;19.5;;;9.8;;
15500;SDS011;7852;52.228;5.990;2023-02-15T08:04:47;15.3;;;9.5;;
15500;SDS011;7852;52.228;5.990;2023-02-15T08:05:47;13.8;;;9.5;;
15500;SDS011;7852;52.228;5.990;2023-02-15T08:06:49;10.6;;;8.5;;
15500;SDS011;7852;52.228;5.990;2023-02-15T08:07:47;9.9;;;7.8;;
15500;SDS011;7852;52.228;5.990;2023-02-15T08:08:47;9.8;;;8.2;;
15500;SDS011;7852;52.228;5.990;2023-02-15T08:09:47;10.4;;;8.1;;
15500;SDS011;7852;52.228;5.990;2023-02-15T08:10:47;12.6;;;8.2;;
15500;SDS011;7852;52.228;5.990;2023-02-15T08:11:47;10.4;;;7.1;;
15500;SDS011;7852;52.228;5.990;2023-02-15T08:12:47;15.8;;;9.8;;
15500;SDS011;7852;52.228;5.990;2023-02-15T08:13:47;17.2;;;10.6;;
15500;SDS011;7852;52.228;5.990;2023-02-15T08:14:47;10.8;;;8.2;;
15500;SDS011;7852;52.228;5.990;2023-02-15T08:15:47;14.5;;;9.5;;
15500;SDS011;7852;52.228;5.990;2023-02-15T08:16:47;8.8;;;7.5;;
15500;SDS011;7852;52.228;5.990;2023-02-15T08:17:47;13;;;10;;
15500;SDS011;7852;52.228;5.990;2023-02-15T08:18:47;9.4;;;7.6;;
15500;SDS011;7852;52.228;5.990;2023-02-15T08:19:47;13.3;;;10.1;;
15500;SDS011;7852;52.228;5.990;2023-02-15T08:20:49;12.7;;;10.3;;
15500;SDS011;7852;52.228;5.990;2023-02-15T08:21:47;16.4;;;10.3;;
15500;SDS011;7852;52.228;5.990;2023-02-15T08:22:47;18.7;;;12.4;;
15500;SDS011;7852;52.228;5.990;2023-02-15T08:23:47;15.4;;;10.9;;
15500;SDS011;7852;52.228;5.990;2023-02-15T08:24:47;17.5;;;11;;
15500;SDS011;7852;52.228;5.990;2023-02-15T08:25:47;13.1;;;10.3;;
15500;SDS011;7852;52.228;5.990;2023-02-15T08:26:47;17.3;;;11.4;;
15500;SDS011;7852;52.228;5.990;2023-02-15T08:27:47;14.3;;;10.9;;
15500;SDS011;7852;52.228;5.990;2023-02-15T08:28:47;13.9;;;10.6;;
15500;SDS011;7852;52.228;5.990;2023-02-15T08:29:47;11.7;;;8.2;;
15500;SDS011;7852;52.228;5.990;2023-02-15T08:30:47;18.7;;;10.7;;
15500;SDS011;7852;52.228;5.990;2023-02-15T08:31:47;16.3;;;9.4;;
15500;SDS011;7852;52.228;5.990;2023-02-15T08:32:47;15.6;;;10.4;;
15500;SDS011;7852;52.228;5.990;2023-02-15T08:33:47;16.1;;;11.5;;
15500;SDS011;7852;52.228;5.990;2023-02-15T08:34:47;14.4;;;10.6;;
15500;SDS011;7852;52.228;5.990;2023-02-15T08:35:47;21.5;;;12.5;;
15500;SDS011;7852;52.228;5.990;2023-02-15T08:36:47;15.9;;;9.6;;
15500;SDS011;7852;52.228;5.990;2023-02-15T08:37:47;19.9;;;11.2;;
15500;SDS011;7852;52.228;5.990;2023-02-15T08:38:47;21;;;11.1;;
15500;SDS011;7852;52.228;5.990;2023-02-15T08:39:47;14.2;;;9.7;;
15500;SDS011;7852;52.228;5.990;2023-02-15T08:40:47;15.9;;;10.3;;
15500;SDS011;7852;52.228;5.990;2023-02-15T08:41:47;11.4;;;8.6;;
15500;SDS011;7852;52.228;5.990;2023-02-15T08:42:47;17.2;;;9.7;;
15500;SDS011;7852;52.228;5.990;2023-02-15T08:43:47;13;;;8.9;;
15500;SDS011;7852;52.228;5.990;2023-02-15T08:44:47;8.7;;;7.1;;
15500;SDS011;7852;52.228;5.990;2023-02-15T08:45:47;13.6;;;8.9;;
15500;SDS011;7852;52.228;5.990;2023-02-15T08:46:47;10.7;;;8;;
15500;SDS011;7852;52.228;5.990;2023-02-15T08:47:47;14.9;;;8.7;;
15500;SDS011;7852;52.228;5.990;2023-02-15T08:48:48;18.2;;;9.7;;
15500;SDS011;7852;52.228;5.990;2023-02-15T08:49:47;12.8;;;8.2;;
15500;SDS011;7852;52.228;5.990;2023-02-15T08:50:47;13.6;;;9;;
15500;SDS011;7852;52.228;5.990;2023-02-15T08:51:47;15.9;;;7.5;;
15500;SDS011;7852;52.228;5.990;2023-02-15T08:52:47;15.3;;;9.7;;
15500;SDS011;7852;52.228;5.990;2023-02-15T08:53:48;15.7;;;10.2;;
15500;SDS011;7852;52.228;5.990;2023-02-15T08:54:47;13.8;;;10.3;;
15500;SDS011;7852;52.228;5.990;2023-02-15T08:55:47;13.9;;;9.6;;
15500;SDS011;7852;52.228;5.990;2023-02-15T08:56:47;19.5;;;11.7;;
15500;SDS011;7852;52.228;5.990;2023-02-15T08:57:47;15.3;;;11.1;;
15500;SDS011;7852;52.228;5.990;2023-02-15T08:58:47;17.2;;;11;;
15500;SDS011;7852;52.228;5.990;2023-02-15T08:59:47;18.6;;;10.4;;
15500;SDS011;7852;52.228;5.990;2023-02-15T09:00:47;14.6;;;9.3;;
15500;SDS011;7852;52.228;5.990;2023-02-15T09:01:47;13.8;;;9.7;;
15500;SDS011;7852;52.228;5.990;2023-02-15T09:02:47;16.1;;;10.1;;
15500;SDS011;7852;52.228;5.990;2023-02-15T09:03:47;12.2;;;9.8;;
15500;SDS011;7852;52.228;5.990;2023-02-15T09:04:47;11.5;;;9.9;;
15500;SDS011;7852;52.228;5.990;2023-02-15T09:05:47;16.8;;;11.2;;
15500;SDS011;7852;52.228;5.990;2023-02-15T09:06:47;13.4;;;9.7;;
15500;SDS011;7852;52.228;5.990;2023-02-15T09:07:47;15.8;;;10.5;;
15500;SDS011;7852;52.228;5.990;2023-02-15T09:08:47;14.9;;;10.3;;
15500;SDS011;7852;52.228;5.990;2023-02-15T09:09:47;16.4;;;11.1;;
15500;SDS011;7852;52.228;5.990;2023-02-15T09:10:47;22;;;11.7;;
15500;SDS011;7852;52.228;5.990;2023-02-15T09:11:48;16.4;;;11.7;;
15500;SDS011;7852;52.228;5.990;2023-02-15T09:12:47;16;;;10.7;;
15500;SDS011;7852;52.228;5.990;2023-02-15T09:13:47;15.6;;;12.3;;
15500;SDS011;7852;52.228;5.990;2023-02-15T09:14:47;13;;;10.1;;
15500;SDS011;7852;52.228;5.990;2023-02-15T09:15:47;17.4;;;11.5;;
15500;SDS011;7852;52.228;5.990;2023-02-15T09:16:47;16.5;;;10.9;;
15500;SDS011;7852;52.228;5.990;2023-02-15T09:17:47;17.1;;;12.6;;
15500;SDS011;7852;52.228;5.990;2023-02-15T09:18:47;20.1;;;13.5;;
15500;SDS011;7852;52.228;5.990;2023-02-15T09:19:47;17.9;;;12.1;;